Venus, Texas
Current Conditions -  °F | °C
As of 1:55 AM on Friday 24 Oct 2014 (Local Time) from KJWY Reporting Station
Broken Clouds Broken Clouds  
Wind Chill: 61°   Ceiling: 6000
Heat Index: 61°   Visibility: 10mi
Dew Point: 56°   Wind: 3mph
Humidity: 85%   Direction: 150°SSE
Pressure: 30.14"   Gusts: NA
Location:  32.43°N, 97.1°W
Report Text: KJWY 240655Z AUTO 15003KT 10SM BKN060 16/14 A3014 RMK AO2 T01620136
Loading
Personal Weather Stations






























Interactive Weather Map
Tropical Storm Tracking
New forecast layout! Learn more

10-Day Weather Forecast

Advertisements
Track Severe Weather on mobile